Pleasant Hill, Illinois
Current Conditions -  °F | °C
As of 10:35 PM on Sunday 25 Jan 2015 (Local Time) from KPPQ Reporting Station
Clear Clear  
Wind Chill: -8°   Ceiling: Unl
Heat Index: -3°   Visibility: 10mi
Dew Point: -6°   Wind: 12mph
Humidity: 77%   Direction: 330°NNW
Pressure: 30.06"   Gusts: NA
Location:  39.44°N, 90.87°W
Report Text: KPPQ 260435Z AUTO 33010KT 10SM CLR M02/M06 A3006 RMK AO2 T10251060
Loading
Personal Weather Stations






























Interactive Weather Map New forecast layout! Learn more

10-Day Weather Forecast

Advertisements
Track Severe Weather on mobile